createdAt,value
2022-11-23T00:03:49.564Z,-3.40
2022-11-23T00:06:17.848Z,-3.50
2022-11-23T00:11:13.727Z,-3.60
2022-11-23T00:13:41.981Z,-3.50
2022-11-23T00:16:11.058Z,-3.40
2022-11-23T00:18:38.498Z,-3.50
2022-11-23T00:21:17.223Z,-3.50
2022-11-23T00:23:46.104Z,-3.50
2022-11-23T00:26:14.398Z,-3.70
2022-11-23T00:31:15.908Z,-3.50
2022-11-23T00:33:43.713Z,-3.40
2022-11-23T00:36:14.169Z,-3.80
2022-11-23T00:38:42.626Z,-3.50
2022-11-23T00:41:14.704Z,-3.50
2022-11-23T00:43:42.307Z,-3.40
2022-11-23T00:48:53.780Z,-3.40
2022-11-23T00:51:25.542Z,-3.40
2022-11-23T00:53:53.485Z,-3.40
2022-11-23T01:01:22.405Z,-3.50
2022-11-23T01:03:52.282Z,-3.50
2022-11-23T01:06:23.543Z,-3.50
2022-11-23T01:13:51.709Z,-3.50
2022-11-23T01:16:24.416Z,-3.50
2022-11-23T01:19:03.886Z,-3.40
2022-11-23T01:24:01.422Z,-3.40
2022-11-23T01:26:28.923Z,-3.50
2022-11-23T01:31:25.293Z,-3.50
2022-11-23T01:34:01.217Z,-3.50
2022-11-23T01:36:33.172Z,-3.40
2022-11-23T01:39:02.614Z,-3.50
2022-11-23T01:41:33.290Z,-3.50
2022-11-23T01:44:01.490Z,-3.50
2022-11-23T01:46:29.232Z,-3.50
2022-11-23T01:49:07.933Z,-3.60
2022-11-23T01:51:41.407Z,-3.50
2022-11-23T01:54:28.520Z,-3.50
2022-11-23T01:57:03.568Z,-3.40
2022-11-23T01:59:34.126Z,-3.60
2022-11-23T02:04:36.755Z,-3.60
2022-11-23T02:09:33.634Z,-3.60
2022-11-23T02:12:01.828Z,-3.50
2022-11-23T02:14:30.817Z,-2.80
2022-11-23T02:22:16.561Z,-4.00
2022-11-23T02:24:52.178Z,-3.50
2022-11-23T02:27:21.064Z,-3.50
2022-11-23T02:29:49.344Z,-3.50
2022-11-23T02:32:26.105Z,-3.60
2022-11-23T02:37:21.036Z,-3.50
2022-11-23T02:39:54.017Z,-3.50
2022-11-23T02:42:21.739Z,-3.50
2022-11-23T02:45:22.580Z,-4.20
2022-11-23T02:50:18.864Z,-3.10
2022-11-23T02:57:42.399Z,-3.50
2022-11-23T03:00:11.352Z,-3.50
2022-11-23T03:02:38.974Z,-3.40
2022-11-23T03:05:06.875Z,-3.50
2022-11-23T03:07:34.497Z,-5.30
2022-11-23T03:12:29.813Z,-3.40
2022-11-23T03:14:57.524Z,-3.50
2022-11-23T03:17:25.197Z,-3.60
2022-11-23T03:22:20.746Z,-3.40
2022-11-23T03:24:48.906Z,-3.50
2022-11-23T03:32:12.225Z,-3.40
2022-11-23T03:34:39.924Z,-3.90
2022-11-23T03:37:07.290Z,-3.60
2022-11-23T03:42:03.066Z,-2.20
2022-11-23T03:44:30.568Z,-3.40
2022-11-23T03:46:58.638Z,-3.30
2022-11-23T03:49:26.431Z,-5.30
2022-11-23T03:51:56.811Z,-3.30
2022-11-23T03:54:24.368Z,-3.30
2022-11-23T03:56:52.017Z,-3.40
2022-11-23T03:59:19.515Z,-3.30
2022-11-23T04:01:47.123Z,-3.50
2022-11-23T04:04:14.900Z,-2.90
2022-11-23T04:06:42.688Z,-3.40
2022-11-23T04:09:12.208Z,-3.40
2022-11-23T04:11:40.040Z,-3.40
2022-11-23T04:14:10.322Z,-2.30
2022-11-23T04:16:37.975Z,-3.40
2022-11-23T04:19:05.645Z,-1.00
2022-11-23T04:21:32.907Z,-3.40
2022-11-23T04:24:00.805Z,-3.80
2022-11-23T04:26:28.671Z,-3.40
2022-11-23T04:28:55.860Z,-3.50
2022-11-23T04:31:23.557Z,-3.40
2022-11-23T04:33:51.321Z,-3.50
2022-11-23T04:36:19.135Z,-2.40
2022-11-23T04:38:46.627Z,-3.50
2022-11-23T04:41:14.263Z,-3.00
2022-11-23T04:43:41.782Z,-3.50
2022-11-23T04:46:11.587Z,-3.40
2022-11-23T04:48:39.263Z,-3.40
2022-11-23T04:51:07.385Z,-3.40
2022-11-23T04:56:02.773Z,-4.10
2022-11-23T05:01:02.707Z,-3.40
2022-11-23T05:03:31.134Z,-3.40
2022-11-23T05:06:03.251Z,-3.60
2022-11-23T05:08:31.318Z,-5.50
2022-11-23T05:10:58.846Z,-3.40
2022-11-23T05:13:26.278Z,-3.40
2022-11-23T05:15:53.840Z,-3.30
2022-11-23T05:18:20.995Z,-3.30
2022-11-23T05:20:49.568Z,-3.40
2022-11-23T05:23:17.551Z,-3.30
2022-11-23T05:25:45.405Z,-3.40
2022-11-23T05:28:39.158Z,-3.40
2022-11-23T05:31:07.329Z,-3.40
2022-11-23T05:33:35.127Z,-3.40
2022-11-23T05:36:02.667Z,-3.70
2022-11-23T05:38:30.150Z,-3.40
2022-11-23T05:40:57.706Z,-3.30
2022-11-23T05:50:51.314Z,-3.40
2022-11-23T05:53:19.059Z,-3.50
2022-11-23T05:55:46.657Z,-3.40
2022-11-23T06:00:41.892Z,-3.30
2022-11-23T06:03:09.791Z,-3.40
2022-11-23T06:05:37.242Z,-3.40
2022-11-23T06:08:04.998Z,-3.70
2022-11-23T06:10:32.624Z,-3.30
2022-11-23T06:13:04.950Z,-3.30
2022-11-23T06:15:32.498Z,-3.20
2022-11-23T06:18:03.508Z,-3.30
2022-11-23T06:20:30.976Z,-3.40
2022-11-23T06:22:58.867Z,-3.20
2022-11-23T06:25:27.326Z,-3.50
2022-11-23T06:30:23.880Z,-2.20
2022-11-23T06:32:51.515Z,-3.10
2022-11-23T06:35:19.677Z,-2.80
2022-11-23T06:40:17.190Z,-3.10
2022-11-23T06:42:44.653Z,-3.10
2022-11-23T06:45:12.167Z,-2.60
2022-11-23T06:50:07.708Z,-3.00
2022-11-23T06:57:30.883Z,-3.00
2022-11-23T07:07:21.836Z,-2.80
2022-11-23T07:09:49.638Z,-2.70
2022-11-23T07:12:17.403Z,-2.70
2022-11-23T07:14:45.234Z,-2.70
2022-11-23T07:19:45.376Z,-2.70
2022-11-23T07:22:13.419Z,-2.70
2022-11-23T07:27:14.783Z,-2.70
2022-11-23T07:32:14.871Z,-2.50
2022-11-23T07:39:56.295Z,-2.40
2022-11-23T07:42:36.771Z,-2.20
2022-11-23T07:47:33.485Z,-2.20
2022-11-23T07:50:01.204Z,-2.00
2022-11-23T07:52:28.808Z,-2.20
2022-11-23T07:54:56.556Z,-2.20
2022-11-23T07:57:24.457Z,-1.70
2022-11-23T07:59:52.025Z,-2.10
2022-11-23T08:02:19.589Z,-2.20
2022-11-23T08:04:47.521Z,-1.90
2022-11-23T08:09:43.673Z,-0.60
2022-11-23T08:12:11.340Z,-1.40
2022-11-23T08:17:06.707Z,-1.50
2022-11-23T08:22:02.166Z,-1.60
2022-11-23T08:24:30.596Z,-1.40
2022-11-23T08:26:58.667Z,-1.30
2022-11-23T08:29:26.582Z,-1.20
2022-11-23T08:34:22.178Z,-1.20
2022-11-23T08:36:49.600Z,-1.10
2022-11-23T08:41:47.189Z,-1.10
2022-11-23T08:44:15.136Z,-1.20
2022-11-23T08:46:42.943Z,-1.00
2022-11-23T08:49:11.128Z,-0.90
2022-11-23T08:56:34.480Z,-0.60
2022-11-23T08:59:02.836Z,-0.60
2022-11-23T09:01:30.780Z,-0.50
2022-11-23T09:06:29.247Z,-0.30
2022-11-23T09:11:26.366Z,-0.50
2022-11-23T09:13:57.516Z,-0.50
2022-11-23T09:16:28.421Z,-0.30
2022-11-23T09:18:58.708Z,-0.30
2022-11-23T09:21:30.445Z,0.10
2022-11-23T09:23:58.986Z,-0.40
2022-11-23T09:26:26.962Z,-0.50
2022-11-23T09:28:54.968Z,-0.30
2022-11-23T09:31:24.130Z,-0.20
2022-11-23T09:36:25.166Z,-0.40
2022-11-23T09:38:56.581Z,-0.40
2022-11-23T09:41:34.866Z,-0.50
2022-11-23T09:44:23.976Z,-0.60
2022-11-23T09:47:22.049Z,-0.40
2022-11-23T09:50:09.360Z,-0.40
2022-11-23T09:52:39.515Z,-0.40
2022-11-23T09:55:38.117Z,-0.40
2022-11-23T09:58:06.678Z,-0.40
2022-11-23T10:00:48.129Z,-0.30
2022-11-23T10:03:18.620Z,0.90
2022-11-23T10:06:08.117Z,0.10
2022-11-23T10:09:02.796Z,-0.20
2022-11-23T10:11:43.109Z,0.00
2022-11-23T10:14:51.599Z,-0.10
2022-11-23T10:17:53.199Z,0.10
2022-11-23T10:20:46.317Z,0.20
2022-11-23T10:23:43.255Z,0.00
2022-11-23T10:26:17.195Z,0.30
2022-11-23T10:28:46.918Z,0.10
2022-11-23T10:31:20.591Z,0.30
2022-11-23T10:34:11.743Z,0.20
2022-11-23T10:36:40.127Z,0.20
2022-11-23T10:39:27.348Z,1.20
2022-11-23T10:42:00.078Z,0.20
2022-11-23T10:44:32.905Z,-0.20
2022-11-23T10:47:00.778Z,0.20
2022-11-23T10:49:30.765Z,0.10
2022-11-23T10:52:06.788Z,0.30
2022-11-23T10:54:37.489Z,-0.10
2022-11-23T10:57:22.236Z,-0.40
2022-11-23T11:06:07.132Z,-0.40
2022-11-23T11:11:25.640Z,-0.50
2022-11-23T11:14:15.071Z,-0.50
2022-11-23T11:16:54.318Z,-0.50
2022-11-23T11:19:27.620Z,-0.50
2022-11-23T11:21:55.587Z,-0.50
2022-11-23T11:24:47.266Z,-0.60
2022-11-23T11:27:18.271Z,-0.60
2022-11-23T11:29:45.490Z,-0.50
2022-11-23T11:32:26.418Z,-0.60
2022-11-23T11:35:21.192Z,-0.60
2022-11-23T11:37:51.860Z,-0.40
2022-11-23T11:40:26.774Z,-0.30
2022-11-23T11:43:10.023Z,-0.60
2022-11-23T11:48:58.347Z,-0.40
2022-11-23T11:54:41.131Z,-0.40
2022-11-23T11:57:36.177Z,-0.40
2022-11-23T12:00:07.022Z,-0.50
2022-11-23T12:02:34.480Z,-0.50
2022-11-23T12:05:39.355Z,-0.40
2022-11-23T12:08:22.376Z,-0.40
2022-11-23T12:11:02.255Z,-0.70
2022-11-23T12:13:38.970Z,-0.70
2022-11-23T12:16:45.659Z,-0.30
2022-11-23T12:19:39.621Z,-0.60
2022-11-23T12:22:19.152Z,-1.00
2022-11-23T12:25:05.864Z,-0.70
2022-11-23T12:27:50.300Z,-0.60
2022-11-23T12:30:34.649Z,-0.70
2022-11-23T12:33:23.948Z,-1.00
2022-11-23T12:36:30.742Z,-1.00
2022-11-23T12:39:07.570Z,-1.00
2022-11-23T12:41:59.805Z,-1.10
2022-11-23T12:44:50.624Z,-1.10
2022-11-23T12:47:24.320Z,-1.10
2022-11-23T12:50:04.059Z,-1.00
2022-11-23T12:53:11.966Z,-1.10
2022-11-23T12:56:13.178Z,-1.00
2022-11-23T12:58:43.248Z,-1.20
2022-11-23T13:01:43.380Z,-1.20
2022-11-23T13:04:39.160Z,-1.10
2022-11-23T13:07:29.466Z,-1.10
2022-11-23T13:10:09.171Z,-1.10
2022-11-23T13:12:55.619Z,-1.40
2022-11-23T13:15:57.011Z,-1.20
2022-11-23T13:19:07.259Z,-1.40
2022-11-23T13:21:48.109Z,-1.30
2022-11-23T13:24:37.404Z,-1.30
2022-11-23T13:27:17.224Z,-1.30
2022-11-23T13:30:14.219Z,-1.20
2022-11-23T13:32:54.150Z,-1.40
2022-11-23T13:38:16.274Z,-1.50
2022-11-23T13:40:46.359Z,-1.50
2022-11-23T13:43:32.691Z,-1.60
2022-11-23T13:46:31.295Z,-1.50
2022-11-23T13:49:00.706Z,-1.40
2022-11-23T13:51:33.770Z,-4.20
2022-11-23T13:54:23.879Z,-1.80
2022-11-23T13:59:34.948Z,-1.00
2022-11-23T14:02:02.838Z,-2.10
2022-11-23T14:04:33.211Z,-2.00
2022-11-23T14:07:20.535Z,-2.10
2022-11-23T14:12:33.160Z,-2.20
2022-11-23T14:15:18.349Z,-2.20
2022-11-23T14:18:01.082Z,-2.30
2022-11-23T14:29:05.305Z,-2.30
2022-11-23T14:31:39.501Z,-2.30
2022-11-23T14:34:28.612Z,-2.30
2022-11-23T14:37:08.462Z,-2.30
2022-11-23T14:39:55.407Z,-2.00
2022-11-23T14:42:25.566Z,-2.40
2022-11-23T14:44:54.182Z,-2.10
2022-11-23T14:47:32.216Z,-4.30
2022-11-23T14:52:34.253Z,-2.40
2022-11-23T14:55:06.034Z,-2.40
2022-11-23T14:57:46.319Z,-2.20
2022-11-23T15:00:31.667Z,-2.40
2022-11-23T15:03:34.334Z,-1.20
2022-11-23T15:06:00.601Z,-2.40
2022-11-23T15:08:40.459Z,-2.30
2022-11-23T15:11:15.395Z,-2.30
2022-11-23T15:13:48.744Z,-2.30
2022-11-23T15:16:18.377Z,-0.70
2022-11-23T15:18:46.653Z,-2.30
2022-11-23T15:21:26.517Z,-2.50
2022-11-23T15:23:58.041Z,-2.30
2022-11-23T15:27:01.131Z,-1.50
2022-11-23T15:29:39.181Z,-2.40
2022-11-23T15:32:33.231Z,-2.40
2022-11-23T15:35:07.357Z,-1.60
2022-11-23T15:37:44.749Z,-2.40
2022-11-23T15:40:18.763Z,-2.40
2022-11-23T15:42:50.101Z,-2.40
2022-11-23T15:45:38.069Z,-2.40
2022-11-23T15:48:11.209Z,-4.30
2022-11-23T15:51:01.639Z,-2.10
2022-11-23T15:53:42.439Z,-2.30
2022-11-23T15:56:19.918Z,-2.30
2022-11-23T15:58:50.175Z,-2.30
2022-11-23T16:01:17.533Z,-2.30
2022-11-23T16:04:01.137Z,-3.20
2022-11-23T16:06:42.910Z,-2.30
2022-11-23T16:09:54.303Z,-2.30
2022-11-23T16:14:59.085Z,-2.20
2022-11-23T16:17:30.288Z,-2.30
2022-11-23T16:20:14.466Z,-2.30
2022-11-23T16:22:50.118Z,-2.30
2022-11-23T16:25:25.139Z,-2.30
2022-11-23T16:28:07.007Z,-1.80
2022-11-23T16:30:40.595Z,-2.30
2022-11-23T16:33:14.839Z,-2.30
2022-11-23T16:35:43.870Z,-2.30
2022-11-23T16:38:12.737Z,-2.30
2022-11-23T16:40:40.995Z,-2.30
2022-11-23T16:43:09.991Z,-2.40
2022-11-23T16:45:40.040Z,-2.10
2022-11-23T16:48:36.783Z,-2.40
2022-11-23T16:51:04.217Z,-2.60
2022-11-23T16:53:53.420Z,-0.80
2022-11-23T16:56:23.954Z,-1.40
2022-11-23T16:58:53.348Z,-2.40
2022-11-23T17:03:55.411Z,-2.40
2022-11-23T17:06:25.649Z,-2.30
2022-11-23T17:09:00.543Z,-2.50
2022-11-23T17:11:36.054Z,-2.50
2022-11-23T17:14:04.719Z,-2.60
2022-11-23T17:16:34.376Z,-2.50
2022-11-23T17:19:02.091Z,-2.50
2022-11-23T17:21:29.724Z,-2.50
2022-11-23T17:23:58.054Z,-1.30
2022-11-23T17:26:34.058Z,-2.20
2022-11-23T17:29:03.703Z,-1.70
2022-11-23T17:31:31.338Z,-2.30
2022-11-23T17:33:59.048Z,-2.60
2022-11-23T17:36:27.262Z,-1.60
2022-11-23T17:38:55.112Z,-2.60
2022-11-23T17:43:50.468Z,-2.50
2022-11-23T17:46:26.546Z,-2.60
2022-11-23T17:48:58.724Z,-2.60
2022-11-23T17:51:26.474Z,-2.60
2022-11-23T17:53:54.177Z,-2.60
2022-11-23T17:56:24.215Z,-2.80
2022-11-23T17:58:54.699Z,-2.90
2022-11-23T18:01:24.064Z,-2.70
2022-11-23T18:03:51.863Z,-2.80
2022-11-23T18:06:24.342Z,-2.80
2022-11-23T18:08:52.926Z,-4.60
2022-11-23T18:11:21.264Z,-2.90
2022-11-23T18:13:50.366Z,-2.90
2022-11-23T18:16:22.365Z,-2.90
2022-11-23T18:18:51.119Z,-2.90
2022-11-23T18:21:19.902Z,-2.90
2022-11-23T18:23:48.237Z,-2.90
2022-11-23T18:26:19.024Z,-3.10
2022-11-23T18:28:47.010Z,-3.00
2022-11-23T18:31:14.547Z,-3.00
2022-11-23T18:33:42.302Z,-3.00
2022-11-23T18:36:10.716Z,-3.00
2022-11-23T18:38:38.935Z,-2.80
2022-11-23T18:41:06.948Z,-3.10
2022-11-23T18:43:34.718Z,-1.30
2022-11-23T18:46:05.389Z,-3.10
2022-11-23T18:51:03.221Z,-3.20
2022-11-23T18:53:32.389Z,-3.20
2022-11-23T18:56:06.954Z,-3.20
2022-11-23T19:06:12.042Z,-2.20
2022-11-23T19:36:20.630Z,-3.10
2022-11-23T19:38:48.551Z,-3.10
2022-11-23T19:41:16.148Z,-3.00
2022-11-23T19:43:44.074Z,-3.10
2022-11-23T19:46:15.311Z,-3.00
2022-11-23T19:48:42.894Z,-3.00
2022-11-23T19:51:16.158Z,-3.00
2022-11-23T19:56:19.717Z,-2.90
2022-11-23T19:58:50.641Z,-3.10
2022-11-23T20:01:20.038Z,-2.90
2022-11-23T20:03:50.495Z,-3.00
2022-11-23T20:06:27.060Z,-2.90
2022-11-23T20:08:59.619Z,-2.90
2022-11-23T20:11:28.807Z,-2.90
2022-11-23T20:13:56.995Z,-2.90
2022-11-23T20:16:27.743Z,-2.80
2022-11-23T20:18:58.922Z,-2.80
2022-11-23T20:21:27.929Z,-2.20
2022-11-23T20:24:04.828Z,-2.80
2022-11-23T20:26:37.286Z,-2.80
2022-11-23T20:29:06.811Z,-2.80
2022-11-23T20:34:06.484Z,-2.80
2022-11-23T20:36:36.288Z,-2.90
2022-11-23T20:39:06.578Z,-2.90
2022-11-23T20:41:36.483Z,-2.90
2022-11-23T20:44:06.300Z,-2.90
2022-11-23T20:54:21.945Z,-2.90
2022-11-23T20:56:49.610Z,-2.90
2022-11-23T21:04:13.276Z,-3.00
2022-11-23T21:06:40.620Z,-3.00
2022-11-23T21:09:09.715Z,-3.00
2022-11-23T21:11:55.986Z,-3.00
2022-11-23T21:14:27.408Z,-3.00
2022-11-23T21:19:33.021Z,-3.10
2022-11-23T21:24:35.068Z,-3.10
2022-11-23T21:27:04.347Z,-3.10
2022-11-23T21:29:31.943Z,-3.20
2022-11-23T21:32:01.461Z,-3.30
2022-11-23T21:34:30.528Z,-3.40
2022-11-23T21:36:59.306Z,-3.40
2022-11-23T21:39:26.857Z,-3.40
2022-11-23T21:41:55.253Z,-3.40
2022-11-23T21:44:23.003Z,-3.40
2022-11-23T21:46:50.922Z,-3.50
2022-11-23T21:49:18.492Z,-3.50
2022-11-23T21:51:46.205Z,-3.50
2022-11-23T21:54:15.875Z,-3.50
2022-11-23T21:56:44.637Z,-3.50
2022-11-23T21:59:12.443Z,-3.50
2022-11-23T22:01:40.346Z,-3.50
2022-11-23T22:04:13.381Z,-3.70
2022-11-23T23:01:28.803Z,-3.10
2022-11-23T23:03:59.003Z,-3.00
2022-11-23T23:06:34.142Z,-3.00
2022-11-23T23:09:02.743Z,-2.80
2022-11-23T23:11:32.462Z,-3.00
2022-11-23T23:14:00.613Z,-2.90
2022-11-23T23:16:28.720Z,-2.90
2022-11-23T23:18:59.552Z,-2.90
2022-11-23T23:21:29.029Z,-2.90
2022-11-23T23:24:01.265Z,-2.90
2022-11-23T23:26:29.322Z,-2.90
2022-11-23T23:29:00.901Z,-2.90
2022-11-23T23:33:57.476Z,-2.80
2022-11-23T23:36:25.101Z,-2.90
2022-11-23T23:38:52.878Z,-2.80
2022-11-23T23:41:21.474Z,-2.90
2022-11-23T23:43:49.257Z,-2.90
2022-11-23T23:48:45.556Z,-2.80
2022-11-23T23:53:42.347Z,-2.80
2022-11-23T23:56:17.273Z,-2.80
2022-11-23T23:58:45.449Z,-2.80
